Thursday, October 19, 2017, 7:09 AM EDT
Back to Local

KSEG, Selinsgrove Penn Valley Airport

Location: Selinsgrove, PA, United States Lat: 40.817
Local Time: 7:09 AM EDT (11:09 GMT) Lon: -76.867
Time Zone: US/Eastern Elev: 449 ft

Show me the last for .
Show Coded

Time T Td Feel RH Dir Speed Gust Alt SLP Vis Weather Sky Remarks
2017-10-19 06:53 43 43 - 100 - Calm - 30.24 30.25 0 FG VV001 None
2017-10-19 05:53 42 42 - 100 - Calm - 30.25 30.25 0 FG VV002 None
2017-10-19 05:50 43 43 - 100 - Calm - 30.25 - 0 BR VV002 None
2017-10-19 05:39 42 42 - 100 - Calm - 30.25 - 1 BR OVC002 None
2017-10-19 05:29 41 41 - 100 - Calm - 30.24 - 4 BR OVC002 None
2017-10-19 05:17 42 42 - 100 - Calm - 30.25 - 2 BR OVC001 None
2017-10-19 05:07 42 42 - 100 - Calm - 30.25 - 1 BR OVC001 None
2017-10-19 05:00 41 41 39 100 360° 3 - 30.25 - 3 BR OVC001 None
2017-10-19 04:53 40 40 37 100 330° 5 - 30.25 30.25 2 BR BKN001 None
2017-10-19 04:42 40 40 - 100 - Calm - 30.25 - 2 BR BKN001 None
2017-10-19 04:39 40 40 - 100 - Calm - 30.25 - 7 SCT003 None
2017-10-19 03:53 41 41 - 100 - Calm - 30.25 30.25 6 BR CLR None
2017-10-19 02:53 43 43 - 100 - Calm - 30.25 30.25 10 CLR None
2017-10-19 01:53 42 42 - 100 - Calm - 30.26 30.27 8 CLR 6-hr Min Temp (2am): 42.1°F
6-hr Max Temp (2am): 52.0°F
2017-10-19 00:53 44 43 - 95 - Calm - 30.26 30.27 7 CLR 24-hr Min Temp (1am): 37.0°F
24-hr Max Temp (1am): 70.0°F
2017-10-18 23:53 45 44 - 96 - Calm - 30.27 30.27 10 CLR None
2017-10-18 22:53 46 46 - 100 - Calm - 30.28 30.29 10 CLR None
2017-10-18 21:53 48 47 - 96 - Calm - 30.28 30.28 10 CLR None
2017-10-18 20:53 49 47 - 92 - Calm - 30.28 30.28 10 CLR None
2017-10-18 19:53 52 50 - 92 - Calm - 30.28 30.29 10 CLR 6-hr Min Temp (8pm): 52.0°F
6-hr Max Temp (8pm): 70.0°F
2017-10-18 18:53 56 51 - 83 - Calm - 30.26 30.27 10 CLR None
2017-10-18 17:53 66 49 - 54 180° 3 - 30.25 30.25 10 CLR None
2017-10-18 16:53 69 48 - 47 170° 8 - 30.26 30.26 10 CLR None
2017-10-18 15:53 68 47 - 46 160° 9 - 30.27 30.27 10 CLR None
2017-10-18 14:53 68 49 - 50 160° 6 - 30.29 30.29 10 CLR None
2017-10-18 13:53 66 48 - 52 170° 5 - 30.31 30.31 10 CLR 6-hr Min Temp (2pm): 37.9°F
6-hr Max Temp (2pm): 66.0°F
2017-10-18 12:53 63 48 - 58 Variable 5 - 30.35 30.35 10 CLR None
2017-10-18 11:53 59 47 - 64 170° 6 - 30.37 30.37 10 CLR None
2017-10-18 10:53 54 46 - 74 100° 5 - 30.37 30.38 10 CLR None
2017-10-18 09:53 49 44 - 83 - Calm - 30.38 30.39 10 CLR None
2017-10-18 08:53 43 43 - 100 - Calm - 30.39 30.39 8 FEW003 None
2017-10-18 08:44 42 42 - 100 - Calm - 30.38 - 6 BR FEW003 None
2017-10-18 08:36 41 41 - 100 - Calm - 30.38 - 7 BKN003 None
2017-10-18 08:28 40 39 - 96 - Calm - 30.38 - 8 SCT003 None
2017-10-18 08:20 39 39 - 100 - Calm - 30.38 - 7 BKN003 None
2017-10-18 07:53 38 38 - 100 - Calm - 30.37 30.37 5 BR FEW002 6-hr Min Temp (8am): 37.0°F
6-hr Max Temp (8am): 39.9°F
2017-10-18 07:43 38 37 - 96 - Calm - 30.36 - 6 BR SCT002 None
2017-10-18 07:35 38 37 - 96 - Calm - 30.36 - 6 BR BKN003 None

Support USWX by starting your Amazon purchase here.